Mendon - 24 Hour Table
Date & TimeSolar
Radiation
(W/m²)
Wind
Speed
(mph)
Wind
Direction
(degrees)
Air
Temperature
(°F)
Relative
Humidity
(%)
Precipitation
(inches)
2019/08/25 21:00 3 0.0 321 69.3 29 0.00
2019/08/25 20:00 4 0.0 343 71.8 37 0.00
2019/08/25 19:00 18 0.2 326 79.0 30 0.00
2019/08/25 18:00 38 1.2 329 84.3 22 0.00
2019/08/25 17:00 58 1.7 347 86.9 19 0.00
2019/08/25 16:00 89 1.5 49 87.2 19 0.00
2019/08/25 15:00 353 1.8 3 87.3 18 0.00
2019/08/25 14:00 958 2.2 63 87.5 16 0.00
2019/08/25 13:00 998 1.7 359 85.6 20 0.00
2019/08/25 12:00 976 0.6 208 83.7 19 0.00
2019/08/25 11:00 889 0.1 158 78.5 29 0.00
2019/08/25 10:00 748 0.0 152 72.4 40 0.00
2019/08/25 09:00 414 0.0 151 65.3 44 0.00
2019/08/25 08:00 51 0.0 119 58.1 55 0.00
2019/08/25 07:00 22 0.0 307 53.1 72 0.00
2019/08/25 06:00 3 0.0 306 52.3 72 0.00
2019/08/25 05:00 2 0.0 284 54.1 67 0.00
2019/08/25 04:00 2 0.0 315 54.5 63 0.00
2019/08/25 03:00 2 0.0 313 55.4 62 0.00
2019/08/25 02:00 2 0.0 310 57.0 57 0.00
2019/08/25 01:00 2 0.0 322 59.4 58 0.00
2019/08/25 00:00 2 0.0 232 61.8 49 0.00
2019/08/24 23:00 2 0.0 259 63.0 41 0.00
2019/08/24 22:00 2 0.0 271 64.5 44 0.00